Terminal Aerodrome Forecast
Issued by NWS Lubbock, TX

Home | Current Version | Previous Version | Text Only | Print | Product List | Glossary On
Versions: 1 2 3 4 5 6 7 8 9 10 11 12 13 14 15 16 17 18 19 20 21
000
FTUS44 KLUB 081134
TAFLBB
TAF
KLBB 081134Z 0812/0912 04015KT P6SM BKN015 OVC060
     FM081400 04015KT P6SM SCT015 OVC060
     FM081800 08009KT P6SM SCT025 BKN050=

USA.gov is the U.S. government's official web portal to all federal, state and local government web resources and services.